Terminal Aerodrome Forecast
Issued by NWS Grand Forks, ND

Home | Current Version | Previous Version | Text Only | Print | Product List | Glossary Off
Versions: 1 2 3 4 5 6 7 8 9 10 11 12 13 14 15 16 17 18 19 20 21 22 23 24 25 26 27 28 29 30 31 32 33 34 35 36 37 38
000 FTUS43 KFGF 271124 TAFGFK TAF KGFK 271124Z 2712/2812 VRB03KT P6SM OVC090 FM271800 16005KT P6SM BKN035 FM272300 16005KT P6SM BKN021 FM280700 VRB03KT P6SM BKN008=

USA.gov is the U.S. government's official web portal to all federal, state and local government web resources and services.